createdAt,value
2022-08-17T00:02:26.058Z,5.70
2022-08-17T00:05:33.038Z,4.70
2022-08-17T00:08:27.127Z,5.20
2022-08-17T00:11:33.036Z,4.80
2022-08-17T00:14:42.068Z,4.90
2022-08-17T00:17:51.061Z,5.10
2022-08-17T00:20:57.150Z,5.00
2022-08-17T00:24:03.105Z,5.00
2022-08-17T00:27:12.124Z,4.50
2022-08-17T00:30:18.091Z,5.00
2022-08-17T00:33:27.502Z,5.20
2022-08-17T00:36:38.156Z,5.00
2022-08-17T00:39:48.121Z,4.90
2022-08-17T00:43:00.098Z,5.00
2022-08-17T00:46:10.162Z,4.90
2022-08-17T00:49:17.135Z,4.80
2022-08-17T00:52:23.156Z,4.50
2022-08-17T00:55:29.185Z,4.50
2022-08-17T00:58:36.558Z,4.90
2022-08-17T01:01:42.241Z,4.60
2022-08-17T01:04:48.217Z,4.70
2022-08-17T01:07:54.186Z,4.50
2022-08-17T01:11:01.957Z,5.10
2022-08-17T01:14:08.239Z,5.10
2022-08-17T01:17:14.190Z,4.70
2022-08-17T01:20:24.212Z,5.00
2022-08-17T01:23:34.257Z,5.20
2022-08-17T01:26:43.268Z,4.80
2022-08-17T01:29:49.226Z,4.80
2022-08-17T01:32:56.237Z,5.00
2022-08-17T01:36:12.262Z,5.00
2022-08-17T01:39:22.263Z,4.90
2022-08-17T01:42:31.281Z,5.50
2022-08-17T01:45:38.281Z,5.20
2022-08-17T01:48:47.247Z,4.70
2022-08-17T01:51:53.298Z,4.70
2022-08-17T01:55:03.355Z,4.20
2022-08-17T01:58:09.341Z,4.90
2022-08-17T02:01:03.391Z,5.20
2022-08-17T02:04:12.338Z,4.50
2022-08-17T02:07:18.320Z,5.00
2022-08-17T02:10:38.432Z,5.00
2022-08-17T02:13:57.820Z,4.80
2022-08-17T02:17:10.412Z,4.60
2022-08-17T02:20:41.303Z,5.10
2022-08-17T02:23:45.360Z,5.20
2022-08-17T02:26:51.449Z,5.00
2022-08-17T02:29:57.409Z,4.60
2022-08-17T02:33:09.304Z,5.10
2022-08-17T02:36:18.453Z,5.80
2022-08-17T02:39:27.531Z,5.50
2022-08-17T02:42:36.704Z,5.30
2022-08-17T02:45:30.417Z,5.10
2022-08-17T02:48:40.916Z,5.20
2022-08-17T02:51:52.483Z,5.70
2022-08-17T02:55:01.613Z,5.30
2022-08-17T02:58:10.548Z,5.50
2022-08-17T03:01:17.556Z,5.20
2022-08-17T03:04:27.496Z,5.80
2022-08-17T03:07:37.499Z,5.60
2022-08-17T03:10:46.502Z,5.90
2022-08-17T03:13:53.498Z,6.00
2022-08-17T03:16:53.540Z,5.90
2022-08-17T03:19:59.584Z,5.50
2022-08-17T03:23:08.608Z,5.80
2022-08-17T03:26:17.510Z,5.60
2022-08-17T03:29:29.538Z,5.60
2022-08-17T03:32:38.559Z,5.40
2022-08-17T03:35:53.586Z,5.60
2022-08-17T03:38:59.608Z,5.00
2022-08-17T03:42:05.593Z,5.70
2022-08-17T03:45:14.070Z,6.20
2022-08-17T03:48:24.588Z,5.60
2022-08-17T03:51:50.615Z,5.70
2022-08-17T03:54:47.617Z,5.60
2022-08-17T03:57:53.621Z,5.90
2022-08-17T04:00:59.669Z,5.40
2022-08-17T04:04:08.642Z,5.70
2022-08-17T04:07:17.718Z,5.40
2022-08-17T04:10:26.706Z,5.70
2022-08-17T04:13:32.756Z,5.40
2022-08-17T04:16:41.704Z,6.00
2022-08-17T04:19:47.666Z,5.70
2022-08-17T04:22:53.701Z,5.80
2022-08-17T04:26:01.685Z,6.20
2022-08-17T04:29:07.728Z,6.00
2022-08-17T04:32:17.994Z,6.10
2022-08-17T04:35:42.821Z,6.00
2022-08-17T04:38:59.713Z,6.00
2022-08-17T04:42:08.761Z,5.50
2022-08-17T04:45:16.704Z,6.20
2022-08-17T04:48:34.732Z,6.50
2022-08-17T04:51:34.747Z,5.90
2022-08-17T04:54:40.781Z,6.20
2022-08-17T04:57:46.787Z,6.10
2022-08-17T05:00:52.938Z,5.90
2022-08-17T05:03:58.822Z,6.80
2022-08-17T05:07:07.812Z,6.90
2022-08-17T05:10:19.790Z,6.20
2022-08-17T05:13:29.884Z,6.20
2022-08-17T05:16:40.905Z,5.90
2022-08-17T05:19:51.990Z,6.10
2022-08-17T05:23:02.844Z,6.60
2022-08-17T05:26:15.214Z,6.10
2022-08-17T05:29:37.851Z,6.10
2022-08-17T05:32:43.955Z,6.30
2022-08-17T05:35:52.836Z,6.30
2022-08-17T05:39:02.961Z,6.90
2022-08-17T05:42:15.951Z,6.50
2022-08-17T05:45:54.811Z,6.30
2022-08-17T05:48:55.952Z,6.10
2022-08-17T05:52:07.047Z,6.10
2022-08-17T05:58:15.935Z,6.90
2022-08-17T06:01:25.014Z,7.00
2022-08-17T06:04:32.032Z,6.50
2022-08-17T06:07:41.979Z,6.80
2022-08-17T06:10:52.976Z,8.00
2022-08-17T06:14:02.950Z,5.90
2022-08-17T06:17:13.032Z,6.80
2022-08-17T06:20:20.164Z,6.20
2022-08-17T06:23:29.998Z,6.80
2022-08-17T06:26:27.523Z,7.00
2022-08-17T06:29:48.014Z,6.60
2022-08-17T06:33:00.077Z,7.70
2022-08-17T06:36:10.020Z,6.70
2022-08-17T06:39:19.044Z,6.40
2022-08-17T06:43:02.358Z,6.40
2022-08-17T06:46:01.032Z,7.90
2022-08-17T06:49:14.139Z,7.40
2022-08-17T06:52:45.843Z,7.10
2022-08-17T06:55:53.130Z,7.00
2022-08-17T06:58:45.114Z,6.80
2022-08-17T07:01:56.068Z,7.20
2022-08-17T07:05:06.132Z,6.50
2022-08-17T07:08:18.122Z,6.40
2022-08-17T07:11:27.098Z,6.30
2022-08-17T07:14:34.175Z,6.60
2022-08-17T07:17:48.087Z,6.20
2022-08-17T07:20:58.176Z,6.40
2022-08-17T07:24:10.037Z,7.40
2022-08-17T07:27:38.139Z,7.30
2022-08-17T07:30:37.274Z,6.10
2022-08-17T07:33:59.229Z,6.10
2022-08-17T07:37:06.227Z,6.80
2022-08-17T07:40:30.265Z,6.50
2022-08-17T07:43:41.241Z,6.30
2022-08-17T07:47:00.233Z,6.80
2022-08-17T07:50:14.324Z,5.60
2022-08-17T07:53:29.274Z,5.20
2022-08-17T07:56:39.289Z,5.50
2022-08-17T07:59:49.382Z,5.60
2022-08-17T08:02:44.373Z,5.10
2022-08-17T08:05:54.320Z,5.50
2022-08-17T08:09:08.294Z,5.60
2022-08-17T08:12:03.337Z,5.20
2022-08-17T08:15:15.384Z,6.00
2022-08-17T08:18:53.613Z,5.60
2022-08-17T08:21:50.311Z,5.40
2022-08-17T08:24:57.373Z,4.90
2022-08-17T08:28:06.369Z,5.20
2022-08-17T08:31:12.341Z,5.60
2022-08-17T08:35:00.722Z,5.40
2022-08-17T08:37:49.484Z,5.30
2022-08-17T08:41:08.383Z,5.20
2022-08-17T08:44:20.370Z,5.10
2022-08-17T08:47:39.429Z,4.40
2022-08-17T08:50:49.403Z,5.00
2022-08-17T08:53:56.373Z,4.90
2022-08-17T08:57:26.437Z,5.10
2022-08-17T09:00:41.477Z,5.50
2022-08-17T09:04:23.381Z,5.00
2022-08-17T09:07:19.432Z,5.30
2022-08-17T09:10:29.463Z,6.40
2022-08-17T09:13:39.551Z,5.50
2022-08-17T09:16:45.427Z,4.70
2022-08-17T09:19:55.494Z,5.20
2022-08-17T09:23:05.523Z,5.20
2022-08-17T09:26:14.630Z,7.20
2022-08-17T09:29:21.496Z,5.50
2022-08-17T09:32:36.495Z,5.70
2022-08-17T09:35:46.538Z,5.60
2022-08-17T09:38:51.496Z,5.40
2022-08-17T09:42:05.599Z,5.20
2022-08-17T09:45:17.553Z,6.00
2022-08-17T09:48:27.578Z,5.00
2022-08-17T09:51:37.608Z,5.00
2022-08-17T09:54:47.557Z,4.60
2022-08-17T09:58:00.923Z,4.90
2022-08-17T10:01:10.678Z,5.60
2022-08-17T10:04:20.111Z,5.10
2022-08-17T10:07:30.605Z,4.60
2022-08-17T10:10:28.687Z,4.80
2022-08-17T10:13:34.628Z,4.70
2022-08-17T10:16:44.618Z,4.70
2022-08-17T10:20:02.633Z,5.30
2022-08-17T10:23:19.477Z,5.00
2022-08-17T10:26:40.434Z,4.90
2022-08-17T10:30:17.765Z,5.00
2022-08-17T10:33:31.777Z,5.80
2022-08-17T10:36:38.781Z,4.70
2022-08-17T10:39:57.709Z,5.40
2022-08-17T10:43:07.727Z,5.10
2022-08-17T10:46:30.649Z,5.60
2022-08-17T10:49:48.148Z,4.70
2022-08-17T10:52:58.734Z,4.70
2022-08-17T10:56:11.757Z,4.60
2022-08-17T10:59:21.697Z,5.10
2022-08-17T11:02:20.799Z,5.20
2022-08-17T11:05:32.796Z,4.80
2022-08-17T11:08:40.885Z,4.90
2022-08-17T11:12:00.805Z,5.30
2022-08-17T11:14:57.749Z,5.40
2022-08-17T11:18:08.001Z,6.20
2022-08-17T11:21:18.192Z,4.70
2022-08-17T11:24:37.803Z,4.90
2022-08-17T11:27:45.907Z,5.90
2022-08-17T11:30:55.830Z,6.30
2022-08-17T11:34:04.811Z,6.30
2022-08-17T11:37:17.808Z,6.20
2022-08-17T11:40:40.615Z,6.70
2022-08-17T11:43:49.861Z,6.00
2022-08-17T11:46:55.877Z,6.20
2022-08-17T11:50:11.833Z,5.20
2022-08-17T11:53:22.887Z,5.80
2022-08-17T11:56:35.954Z,6.30
2022-08-17T11:59:50.871Z,4.70
2022-08-17T12:03:01.868Z,7.40
2022-08-17T12:06:12.843Z,5.50
2022-08-17T12:09:23.010Z,5.60
2022-08-17T12:12:35.930Z,5.60
2022-08-17T12:15:46.943Z,7.30
2022-08-17T12:18:45.905Z,5.70
2022-08-17T12:22:11.987Z,6.00
2022-08-17T12:25:29.661Z,6.10
2022-08-17T12:28:38.920Z,5.80
2022-08-17T12:31:48.985Z,8.70
2022-08-17T12:35:02.676Z,6.20
2022-08-17T12:38:32.632Z,5.90
2022-08-17T12:41:43.011Z,7.60
2022-08-17T12:45:04.980Z,6.80
2022-08-17T12:48:03.057Z,7.10
2022-08-17T12:51:12.011Z,7.40
2022-08-17T12:54:22.037Z,7.30
2022-08-17T12:57:32.053Z,6.10
2022-08-17T13:00:41.052Z,6.10
2022-08-17T13:03:58.998Z,8.20
2022-08-17T13:07:14.057Z,7.10
2022-08-17T13:10:28.725Z,5.60
2022-08-17T13:13:41.071Z,5.40
2022-08-17T13:16:52.125Z,6.20
2022-08-17T13:20:06.105Z,5.30
2022-08-17T13:23:02.095Z,4.90
2022-08-17T13:26:12.119Z,5.00
2022-08-17T13:29:23.086Z,6.10
2022-08-17T13:32:33.651Z,5.40
2022-08-17T13:35:49.974Z,4.60
2022-08-17T13:39:06.110Z,5.60
2022-08-17T13:42:17.982Z,5.20
2022-08-17T13:45:36.562Z,4.60
2022-08-17T13:48:49.191Z,5.60
2022-08-17T13:51:59.235Z,5.20
2022-08-17T13:55:13.685Z,4.70
2022-08-17T13:58:24.187Z,3.80
2022-08-17T14:01:38.377Z,4.50
2022-08-17T14:04:51.191Z,3.80
2022-08-17T14:08:02.242Z,4.10
2022-08-17T14:11:16.219Z,3.90
2022-08-17T14:14:27.300Z,3.70
2022-08-17T14:17:39.228Z,3.00
2022-08-17T14:20:52.267Z,4.10
2022-08-17T14:24:02.255Z,3.90
2022-08-17T14:26:57.256Z,3.60
2022-08-17T14:30:06.304Z,3.50
2022-08-17T14:33:17.285Z,4.10
2022-08-17T14:36:27.326Z,4.40
2022-08-17T14:39:40.342Z,5.00
2022-08-17T14:42:49.336Z,3.90
2022-08-17T14:46:00.453Z,4.10
2022-08-17T14:49:10.820Z,4.40
2022-08-17T14:52:20.346Z,3.90
2022-08-17T14:55:34.595Z,4.90
2022-08-17T14:58:32.386Z,5.20
2022-08-17T15:01:41.385Z,5.30
2022-08-17T15:04:35.345Z,4.80
2022-08-17T15:07:47.035Z,4.90
2022-08-17T15:10:57.374Z,5.80
2022-08-17T15:14:06.470Z,4.80
2022-08-17T15:17:43.928Z,4.50
2022-08-17T15:20:55.438Z,5.70
2022-08-17T15:24:04.397Z,5.20
2022-08-17T15:27:10.401Z,5.80
2022-08-17T15:30:07.529Z,5.20
2022-08-17T15:33:20.547Z,6.70
2022-08-17T15:36:30.448Z,5.20
2022-08-17T15:39:40.682Z,6.50
2022-08-17T15:42:54.437Z,6.20
2022-08-17T15:46:05.494Z,5.70
2022-08-17T15:49:14.454Z,5.30
2022-08-17T15:52:21.473Z,6.60
2022-08-17T15:55:31.512Z,5.20
2022-08-17T15:58:44.470Z,5.50
2022-08-17T16:04:59.612Z,5.20
2022-08-17T16:08:06.632Z,5.90
2022-08-17T16:11:16.563Z,6.00
2022-08-17T16:14:25.537Z,6.10
2022-08-17T16:17:41.550Z,5.80
2022-08-17T16:20:36.668Z,6.90
2022-08-17T16:23:49.614Z,6.50
2022-08-17T16:32:50.746Z,6.50
2022-08-17T16:36:00.619Z,7.40
2022-08-17T16:39:08.567Z,8.20
2022-08-17T16:42:20.655Z,7.60
2022-08-17T16:45:39.596Z,6.60
2022-08-17T16:48:48.644Z,6.10
2022-08-17T16:51:54.589Z,5.70
2022-08-17T16:55:00.632Z,5.90
2022-08-17T16:58:09.607Z,5.90
2022-08-17T17:01:21.740Z,6.40
2022-08-17T17:04:35.790Z,7.40
2022-08-17T17:07:44.725Z,6.80
2022-08-17T17:10:39.671Z,8.30
2022-08-17T17:13:49.749Z,7.50
2022-08-17T17:16:58.667Z,7.10
2022-08-17T17:20:07.702Z,6.10
2022-08-17T17:23:20.741Z,6.30
2022-08-17T17:26:29.815Z,5.90
2022-08-17T17:29:48.057Z,7.70
2022-08-17T17:32:58.715Z,7.20
2022-08-17T17:36:12.815Z,6.40
2022-08-17T17:39:22.841Z,5.90
2022-08-17T17:42:20.307Z,6.00
2022-08-17T17:45:29.813Z,7.30
2022-08-17T17:48:35.822Z,6.90
2022-08-17T17:52:02.839Z,8.70
2022-08-17T17:55:17.813Z,7.10
2022-08-17T17:58:26.820Z,7.90
2022-08-17T18:01:39.935Z,7.80
2022-08-17T18:04:46.793Z,7.10
2022-08-17T18:07:42.820Z,11.50
2022-08-17T18:10:54.825Z,8.10
2022-08-17T18:14:01.818Z,7.70
2022-08-17T18:17:07.903Z,8.00
2022-08-17T18:20:53.373Z,7.80
2022-08-17T18:24:01.895Z,7.70
2022-08-17T18:27:10.887Z,7.70
2022-08-17T18:30:23.142Z,7.80
2022-08-17T18:33:28.926Z,8.90
2022-08-17T18:36:34.865Z,8.30
2022-08-17T18:39:41.003Z,8.60
2022-08-17T18:42:52.011Z,8.40
2022-08-17T18:45:59.272Z,8.30
2022-08-17T18:49:04.972Z,7.50
2022-08-17T18:52:10.930Z,8.00
2022-08-17T18:55:16.983Z,7.80
2022-08-17T18:58:23.923Z,9.40
2022-08-17T19:01:47.003Z,9.60
2022-08-17T19:04:59.057Z,8.80
2022-08-17T19:08:08.977Z,8.80
2022-08-17T19:11:20.965Z,9.90
2022-08-17T19:14:39.008Z,11.40
2022-08-17T19:17:45.028Z,8.70
2022-08-17T19:20:55.445Z,8.10
2022-08-17T19:24:04.026Z,8.70
2022-08-17T19:27:13.083Z,8.50
2022-08-17T19:30:22.994Z,8.20
2022-08-17T19:33:34.072Z,8.20
2022-08-17T19:36:41.036Z,8.00
2022-08-17T19:39:47.079Z,8.20
2022-08-17T19:42:53.066Z,7.80
2022-08-17T19:45:52.076Z,8.00
2022-08-17T19:49:01.133Z,7.70
2022-08-17T19:52:08.074Z,9.90
2022-08-17T19:55:22.128Z,9.30
2022-08-17T19:58:32.143Z,8.50
2022-08-17T20:01:42.184Z,8.90
2022-08-17T20:04:49.166Z,9.20
2022-08-17T20:07:58.130Z,9.40
2022-08-17T20:11:07.165Z,9.40
2022-08-17T20:14:18.223Z,9.50
2022-08-17T20:17:28.363Z,9.20
2022-08-17T20:20:25.197Z,9.10
2022-08-17T20:23:31.118Z,10.50
2022-08-17T20:26:37.189Z,9.20
2022-08-17T20:29:47.154Z,8.30
2022-08-17T20:32:56.206Z,8.00
2022-08-17T20:36:06.181Z,8.40
2022-08-17T20:39:16.213Z,8.40
2022-08-17T20:42:23.217Z,8.80
2022-08-17T20:45:33.239Z,8.40
2022-08-17T20:48:41.476Z,8.80
2022-08-17T20:51:36.258Z,7.70
2022-08-17T20:54:43.257Z,9.40
2022-08-17T20:57:50.495Z,8.60
2022-08-17T21:00:57.395Z,8.20
2022-08-17T21:04:08.355Z,8.10
2022-08-17T21:07:14.259Z,8.50
2022-08-17T21:10:30.267Z,8.20
2022-08-17T21:13:41.365Z,8.20
2022-08-17T21:16:47.314Z,8.20
2022-08-17T21:20:10.290Z,8.10
2022-08-17T21:23:20.342Z,8.10
2022-08-17T21:26:30.798Z,7.90
2022-08-17T21:29:40.290Z,9.00
2022-08-17T21:32:46.354Z,8.00
2022-08-17T21:35:52.347Z,8.50
2022-08-17T21:39:15.223Z,8.80
2022-08-17T21:42:21.381Z,8.00
2022-08-17T21:45:27.368Z,7.80
2022-08-17T21:48:33.383Z,8.30
2022-08-17T21:51:40.413Z,8.30
2022-08-17T21:54:35.394Z,7.20
2022-08-17T21:57:41.439Z,7.40
2022-08-17T22:00:58.442Z,7.40
2022-08-17T22:04:04.476Z,7.40
2022-08-17T22:07:10.461Z,7.50
2022-08-17T22:10:16.431Z,7.70
2022-08-17T22:13:29.277Z,7.60
2022-08-17T22:16:35.455Z,7.60
2022-08-17T22:19:44.472Z,7.80
2022-08-17T22:22:53.543Z,7.40
2022-08-17T22:25:50.478Z,7.20
2022-08-17T22:29:02.476Z,7.20
2022-08-17T22:32:15.530Z,8.20
2022-08-17T22:35:42.529Z,7.10
2022-08-17T22:38:49.557Z,7.20
2022-08-17T22:42:14.496Z,7.20
2022-08-17T22:45:24.549Z,7.20
2022-08-17T22:48:34.649Z,6.70
2022-08-17T22:51:41.565Z,6.70
2022-08-17T22:54:45.556Z,7.50
2022-08-17T22:57:42.518Z,7.30
2022-08-17T23:00:51.574Z,7.10
2022-08-17T23:04:13.114Z,7.10
2022-08-17T23:07:19.653Z,6.50
2022-08-17T23:10:29.691Z,7.90
2022-08-17T23:13:41.597Z,7.80
2022-08-17T23:16:47.684Z,7.50
2022-08-17T23:19:57.634Z,7.40
2022-08-17T23:23:04.703Z,7.30
2022-08-17T23:26:14.669Z,7.30
2022-08-17T23:29:08.670Z,7.80
2022-08-17T23:32:20.676Z,7.50
2022-08-17T23:35:39.082Z,7.20
2022-08-17T23:38:35.674Z,7.80
2022-08-17T23:41:44.665Z,7.20
2022-08-17T23:44:50.695Z,7.80
2022-08-17T23:47:56.654Z,7.30
2022-08-17T23:51:04.295Z,8.30
2022-08-17T23:54:12.722Z,7.90
2022-08-17T23:57:18.728Z,7.60
